Time;durP1;ratioP1;P1;durP2;ratioP2;P2;SDS_P1;SDS_P2;PMS_P1;PMS_P2;Temp;Humidity;BMP_temperature;BMP_pressure;BME280_temperature;BME280_humidity;BME280_pressure;Samples;Min_cycle;Max_cycle;Signal;HPM_P1;HPM_P2
2023/02/08 00:01:11;;;;;;;65.68;40.10;;;-3275.90;89.60;;;;;;5037412;28;20995;-77
2023/02/08 00:03:37;;;;;;;60.78;39.10;;;-3275.90;89.60;;;;;;5058876;28;20396;-74
2023/02/08 00:06:04;;;;;;;65.70;41.08;;;-3275.90;89.60;;;;;;5057648;28;20044;-75
2023/02/08 00:08:31;;;;;;;69.40;42.05;;;-3275.90;89.60;;;;;;5057457;28;20013;-76
2023/02/08 00:10:56;;;;;;;61.90;38.78;;;-3275.90;89.50;;;;;;5057759;28;20044;-75
2023/02/08 00:13:23;;;;;;;66.35;39.53;;;-3275.80;89.40;;;;;;5058816;28;20483;-75
2023/02/08 00:15:52;;;;;;;64.90;40.60;;;-3275.80;89.30;;;;;;5057829;28;20132;-74
2023/02/08 00:18:18;;;;;;;69.93;38.80;;;-3275.80;89.30;;;;;;5057908;28;20063;-74
2023/02/08 00:20:44;;;;;;;66.28;39.47;;;-3275.70;89.30;;;;;;5057457;28;20028;-74
2023/02/08 00:23:11;;;;;;;66.60;40.65;;;-3275.70;89.20;;;;;;5057266;28;20035;-74
2023/02/08 00:25:38;;;;;;;65.93;39.67;;;-3275.70;89.10;;;;;;5058482;28;20051;-74
2023/02/08 00:28:04;;;;;;;69.57;40.35;;;-3275.70;89.10;;;;;;5055473;28;20048;-74
2023/02/08 00:30:30;;;;;;;59.45;37.83;;;-3275.70;89.10;;;;;;5056136;28;20063;-74
2023/02/08 00:32:56;;;;;;;66.70;39.83;;;-3275.60;89.00;;;;;;5058229;28;20032;-74
2023/02/08 00:35:22;;;;;;;64.35;39.03;;;-3275.60;89.10;;;;;;5058110;28;20090;-76
2023/02/08 00:37:47;;;;;;;76.90;41.47;;;-3275.60;89.10;;;;;;5057568;28;20036;-75
2023/02/08 00:40:13;;;;;;;69.28;41.97;;;-3275.60;89.00;;;;;;5056002;28;20443;-74
2023/02/08 00:42:39;;;;;;;64.80;41.17;;;-3275.60;88.90;;;;;;5039426;28;20111;-74
2023/02/08 00:45:05;;;;;;;66.72;41.92;;;-3275.50;88.80;;;;;;5058188;28;21415;-75
2023/02/08 00:47:30;;;;;;;64.93;39.55;;;-3275.50;88.80;;;;;;5056042;28;20398;-74
2023/02/08 00:49:56;;;;;;;63.92;39.53;;;-3275.50;88.90;;;;;;5057997;28;20353;-74
2023/02/08 00:52:22;;;;;;;66.40;40.85;;;-3275.50;88.90;;;;;;5040481;28;20373;-75
2023/02/08 00:54:47;;;;;;;57.67;37.50;;;-3275.40;88.80;;;;;;5056660;28;20072;-74
2023/02/08 00:57:14;;;;;;;62.17;38.30;;;-3275.40;88.80;;;;;;5057768;28;20198;-75
2023/02/08 00:59:39;;;;;;;63.95;39.92;;;-3275.40;88.80;;;;;;5056285;28;20028;-74
2023/02/08 01:02:05;;;;;;;60.10;38.58;;;-3275.40;88.70;;;;;;5059262;28;20492;-75
2023/02/08 01:04:31;;;;;;;61.60;38.42;;;-3275.40;88.80;;;;;;5055830;28;20354;-75
2023/02/08 01:06:57;;;;;;;67.68;39.80;;;-3275.40;88.70;;;;;;5056486;28;20237;-75
2023/02/08 01:09:23;;;;;;;58.03;37.78;;;-3275.40;88.60;;;;;;5056997;28;20119;-75
2023/02/08 01:11:49;;;;;;;61.83;37.90;;;-3275.40;88.60;;;;;;5056148;28;20040;-74
2023/02/08 01:14:15;;;;;;;69.25;38.65;;;-3275.30;88.50;;;;;;5038304;28;20025;-74
2023/02/08 01:16:40;;;;;;;60.72;37.85;;;-3275.30;88.40;;;;;;5038914;28;20188;-74
2023/02/08 01:19:06;;;;;;;65.50;38.72;;;-3275.30;88.30;;;;;;5058028;28;20028;-75
2023/02/08 01:21:35;;;;;;;66.80;40.33;;;-3275.30;88.30;;;;;;5056317;28;20123;-76
2023/02/08 01:24:01;;;;;;;65.43;38.22;;;-3275.20;88.30;;;;;;5032876;28;20035;-74
2023/02/08 01:26:27;;;;;;;58.38;38.67;;;-3275.20;88.20;;;;;;5061356;28;20403;-75
2023/02/08 01:28:54;;;;;;;59.72;37.15;;;-3275.20;88.20;;;;;;5054088;28;20045;-76
2023/02/08 01:31:29;;;;;;;61.60;38.75;;;-3275.20;88.20;;;;;;5038309;28;20403;-74
2023/02/08 01:33:56;;;;;;;59.72;38.95;;;-3275.20;88.20;;;;;;5050115;28;20348;-73
2023/02/08 01:36:22;;;;;;;66.10;39.35;;;-3275.20;88.20;;;;;;5053339;28;20145;-73
2023/02/08 01:38:48;;;;;;;64.10;39.03;;;-3275.10;88.10;;;;;;5056805;28;20428;-74
2023/02/08 01:41:23;;;;;;;62.70;37.38;;;-3275.10;88.10;;;;;;5053073;28;20033;-75
2023/02/08 01:44:00;;;;;;;61.15;38.53;;;-3275.10;88.20;;;;;;5056336;28;20075;-73
2023/02/08 01:46:26;;;;;;;61.65;37.85;;;-3275.10;88.10;;;;;;5054342;28;20125;-76
2023/02/08 01:48:53;;;;;;;59.00;38.67;;;-3275.10;88.20;;;;;;5055476;28;20111;-75
2023/02/08 01:51:23;;;;;;;61.03;38.40;;;-3275.10;88.20;;;;;;5056018;28;20044;-76
2023/02/08 01:53:50;;;;;;;59.03;36.17;;;-3275.10;88.20;;;;;;5055827;28;20024;-75
2023/02/08 01:56:25;;;;;;;65.35;38.22;;;-3275.10;88.30;;;;;;5037226;28;20050;-74
2023/02/08 01:58:56;;;;;;;67.60;41.28;;;-3275.10;88.30;;;;;;5057619;28;20560;-76
2023/02/08 02:01:24;;;;;;;65.93;39.30;;;-3275.10;88.30;;;;;;5039342;28;20048;-75
2023/02/08 02:03:49;;;;;;;63.30;38.03;;;-3275.10;88.30;;;;;;5055999;28;20035;-74
2023/02/08 02:06:21;;;;;;;69.22;40.20;;;-3275.10;88.40;;;;;;5053042;28;20036;-75
2023/02/08 02:08:55;;;;;;;61.83;38.13;;;-3275.20;88.50;;;;;;5053061;28;20102;-73
2023/02/08 02:11:20;;;;;;;62.38;37.88;;;-3275.20;88.50;;;;;;5054274;28;20040;-75
2023/02/08 02:13:49;;;;;;;62.50;37.72;;;-3275.20;88.50;;;;;;5057300;28;20033;-73
2023/02/08 02:16:15;;;;;;;67.13;37.75;;;-3275.20;88.60;;;;;;5052444;28;20488;-74
2023/02/08 02:18:41;;;;;;;62.58;38.08;;;-3275.20;88.60;;;;;;5055485;28;20100;-75
2023/02/08 02:21:29;;;;;;;61.03;38.40;;;-3275.20;88.60;;;;;;5040045;28;20546;-73
2023/02/08 02:24:17;;;;;;;60.15;37.05;;;-3275.20;88.60;;;;;;5058552;28;20021;-74
2023/02/08 02:27:13;;;;;;;61.92;37.60;;;-3275.20;88.60;;;;;;5055306;28;20059;-74
2023/02/08 02:29:51;;;;;;;63.85;37.70;;;-3275.10;88.70;;;;;;5035199;28;20044;-76
2023/02/08 02:32:39;;;;;;;59.97;36.78;;;-3275.10;88.70;;;;;;5053629;28;20097;-76
2023/02/08 02:35:18;;;;;;;62.20;37.63;;;-3275.10;88.70;;;;;;5055801;28;20041;-73
2023/02/08 02:38:18;;;;;;;58.45;36.75;;;-3275.00;88.60;;;;;;5056010;28;20036;-73
2023/02/08 02:40:58;;;;;;;60.42;38.92;;;-3275.00;88.60;;;;;;5055080;28;20433;-75
2023/02/08 02:43:50;;;;;;;61.83;38.53;;;-3275.00;88.60;;;;;;5035616;28;20562;-73
2023/02/08 02:46:22;;;;;;;61.85;38.55;;;-3275.10;88.60;;;;;;5052128;28;20040;-73
2023/02/08 02:48:51;;;;;;;57.05;37.60;;;-3275.10;88.60;;;;;;5054752;28;20041;-73
2023/02/08 02:51:44;;;;;;;56.40;35.30;;;-3275.10;88.70;;;;;;5054347;28;20390;-75
2023/02/08 02:54:19;;;;;;;60.45;37.20;;;-3275.00;88.70;;;;;;5038197;28;20045;-74
2023/02/08 02:56:51;;;;;;;56.70;36.90;;;-3275.00;88.70;;;;;;5054385;28;20409;-73
2023/02/08 02:59:18;;;;;;;56.65;36.60;;;-3275.00;88.60;;;;;;5034601;28;20036;-75
2023/02/08 03:01:45;;;;;;;57.22;36.25;;;-3275.00;88.60;;;;;;5035268;28;20458;-76
2023/02/08 03:04:38;;;;;;;61.78;37.83;;;-3275.00;88.50;;;;;;5057383;28;20036;-74
2023/02/08 03:07:18;;;;;;;61.70;35.85;;;-3275.00;88.50;;;;;;5054402;28;20028;-74
2023/02/08 03:09:47;;;;;;;58.83;35.40;;;-3275.00;88.50;;;;;;5054643;28;20101;-75
2023/02/08 03:12:32;;;;;;;56.65;36.85;;;-3275.00;88.60;;;;;;5053323;28;20100;-74
2023/02/08 03:15:14;;;;;;;55.83;35.83;;;-3275.00;88.60;;;;;;5054678;28;20044;-74
2023/02/08 03:17:58;;;;;;;58.25;35.88;;;-3275.00;88.60;;;;;;5055715;28;20103;-73
2023/02/08 03:20:41;;;;;;;59.97;35.80;;;-3274.90;88.50;;;;;;5053662;28;20055;-75
2023/02/08 03:23:38;;;;;;;56.17;34.85;;;-3275.00;88.60;;;;;;5055593;28;20040;-75
2023/02/08 03:26:34;;;;;;;55.22;34.53;;;-3274.90;88.60;;;;;;5035548;28;20346;-73
2023/02/08 03:29:16;;;;;;;55.17;33.63;;;-3274.90;88.50;;;;;;5054265;28;20053;-72
2023/02/08 03:31:51;;;;;;;58.08;35.72;;;-3274.90;88.50;;;;;;5054157;28;20136;-73
2023/02/08 03:34:22;;;;;;;;;;;-3274.80;88.40;;;;;;5054795;28;20043;-74
2023/02/08 03:36:54;;;;;;;55.40;35.47;;;-3274.80;88.40;;;;;;5057137;28;19978;-74
2023/02/08 03:39:27;;;;;;;52.42;35.40;;;-3274.80;88.50;;;;;;5060022;28;20105;-72
2023/02/08 03:41:57;;;;;;;55.75;34.65;;;-3274.80;88.50;;;;;;5060132;28;20043;-73
2023/02/08 03:44:45;;;;;;;54.75;35.53;;;-3274.90;88.50;;;;;;5056415;28;20492;-74
2023/02/08 03:47:16;;;;;;;53.75;34.47;;;-3274.90;88.60;;;;;;5058102;28;20055;-74
2023/02/08 03:49:44;;;;;;;57.05;34.60;;;-3274.90;88.60;;;;;;5055593;28;20025;-73
2023/02/08 03:52:10;;;;;;;55.78;33.80;;;-3275.00;88.60;;;;;;5056657;28;20033;-73
2023/02/08 03:54:51;;;;;;;56.67;35.45;;;-3274.90;88.50;;;;;;5056051;28;20029;-75
2023/02/08 03:57:30;;;;;;;49.90;34.05;;;-3274.90;88.60;;;;;;5055652;28;20559;-75
2023/02/08 04:00:04;;;;;;;55.67;35.40;;;-3274.90;88.60;;;;;;5058176;28;20040;-74
2023/02/08 04:02:36;;;;;;;55.63;35.60;;;-3274.90;88.70;;;;;;5059280;28;20055;-75
2023/02/08 04:05:03;;;;;;;56.97;35.17;;;-3274.80;88.60;;;;;;5059483;28;20024;-75
2023/02/08 04:07:28;;;;;;;57.72;33.28;;;-3274.90;88.80;;;;;;5057489;28;20028;-73
2023/02/08 04:09:54;;;;;;;52.63;34.15;;;-3274.90;88.80;;;;;;5058254;28;20025;-73
2023/02/08 04:12:20;;;;;;;51.95;32.90;;;-3274.90;88.80;;;;;;5039997;28;20040;-76
2023/02/08 04:14:45;;;;;;;62.58;37.55;;;-3274.90;88.80;;;;;;5057113;28;20066;-72
2023/02/08 04:17:11;;;;;;;54.80;34.22;;;-3274.90;88.80;;;;;;5058271;28;20063;-72
2023/02/08 04:19:37;;;;;;;57.08;34.80;;;-3274.90;88.90;;;;;;5040537;28;20028;-74
2023/02/08 04:22:03;;;;;;;52.05;34.05;;;-3274.90;88.90;;;;;;5059089;28;20554;-74
2023/02/08 04:24:28;;;;;;;58.75;34.50;;;-3274.90;88.80;;;;;;5059228;28;20048;-75
2023/02/08 04:26:54;;;;;;;56.60;36.88;;;-3274.80;88.80;;;;;;5056761;28;20733;-75
2023/02/08 04:29:20;;;;;;;50.50;33.55;;;-3274.80;88.80;;;;;;5058882;28;20573;-74
2023/02/08 04:31:45;;;;;;;55.83;33.88;;;-3274.80;88.90;;;;;;5057416;28;20047;-74
2023/02/08 04:34:11;;;;;;;54.88;35.38;;;-3274.80;88.90;;;;;;5058863;28;20034;-75
2023/02/08 04:36:36;;;;;;;52.72;33.78;;;-3274.80;88.90;;;;;;5057384;28;20067;-76
2023/02/08 04:39:02;;;;;;;49.55;33.53;;;-3274.70;88.90;;;;;;5063109;28;20056;-74
2023/02/08 04:41:28;;;;;;;52.78;35.63;;;-3274.70;88.90;;;;;;5055278;28;20047;-76
2023/02/08 04:43:54;;;;;;;51.80;33.78;;;-3274.70;88.90;;;;;;5057762;28;20711;-74
2023/02/08 04:46:19;;;;;;;54.70;33.88;;;-3274.60;88.90;;;;;;5053522;28;20115;-74
2023/02/08 04:48:45;;;;;;;52.35;33.30;;;-3274.60;88.90;;;;;;5056974;28;20029;-76
2023/02/08 04:51:11;;;;;;;53.70;34.55;;;-3274.60;88.80;;;;;;5036277;28;20048;-75
2023/02/08 04:53:36;;;;;;;60.15;34.90;;;-3274.50;88.80;;;;;;5059100;28;20032;-75
2023/02/08 04:56:02;;;;;;;54.50;34.08;;;-3274.50;88.80;;;;;;5058409;28;20429;-74
2023/02/08 04:58:28;;;;;;;52.90;32.95;;;-3274.50;88.80;;;;;;5058361;28;20024;-74
2023/02/08 05:00:53;;;;;;;53.38;34.65;;;-3274.50;88.80;;;;;;5055436;28;20040;-75
2023/02/08 05:03:19;;;;;;;54.25;33.90;;;-3274.50;88.70;;;;;;5054556;28;20485;-75
2023/02/08 05:05:45;;;;;;;54.10;34.25;;;-3274.40;88.60;;;;;;5056798;28;20551;-75
2023/02/08 05:08:10;;;;;;;56.13;34.35;;;-3274.40;88.60;;;;;;5057998;28;20028;-75
2023/02/08 05:10:36;;;;;;;54.88;34.10;;;-3274.50;88.60;;;;;;5057827;28;20395;-75
2023/02/08 05:13:02;;;;;;;52.88;33.38;;;-3274.50;88.60;;;;;;5059775;28;20052;-75
2023/02/08 05:15:27;;;;;;;54.78;35.38;;;-3274.40;88.60;;;;;;5055052;28;20412;-76
2023/02/08 05:17:53;;;;;;;55.60;36.33;;;-3274.50;88.60;;;;;;5057690;28;20047;-75
2023/02/08 05:20:20;;;;;;;55.83;36.53;;;-3274.50;88.50;;;;;;5053390;28;20435;-74
2023/02/08 05:22:46;;;;;;;58.72;37.33;;;-3274.50;88.40;;;;;;5056140;28;20032;-75
2023/02/08 05:25:11;;;;;;;61.70;37.97;;;-3274.40;88.40;;;;;;5056446;28;20134;-74
2023/02/08 05:27:37;;;;;;;58.53;37.70;;;-3274.40;88.30;;;;;;5052997;28;20641;-75
2023/02/08 05:30:03;;;;;;;56.40;37.42;;;-3274.40;88.30;;;;;;5056978;28;20029;-74
2023/02/08 05:32:29;;;;;;;54.55;36.10;;;-3274.40;88.30;;;;;;5037159;28;20036;-74
2023/02/08 05:34:55;;;;;;;55.63;35.33;;;-3274.40;88.20;;;;;;5056420;28;20029;-76
2023/02/08 05:37:20;;;;;;;61.25;37.05;;;-3274.40;88.10;;;;;;5054794;28;20041;-75
2023/02/08 05:39:46;;;;;;;56.55;36.60;;;-3274.30;88.10;;;;;;5055679;28;20055;-76
2023/02/08 05:42:12;;;;;;;58.33;36.58;;;-3274.30;88.20;;;;;;5056310;28;20125;-75
2023/02/08 05:44:37;;;;;;;60.15;37.08;;;-3274.30;88.20;;;;;;5056719;28;20111;-74
2023/02/08 05:47:03;;;;;;;57.35;34.97;;;-3274.30;88.20;;;;;;5051871;28;20029;-75
2023/02/08 05:49:29;;;;;;;53.80;34.83;;;-3274.20;88.20;;;;;;5056226;28;20032;-76
2023/02/08 05:51:55;;;;;;;55.33;35.28;;;-3274.30;88.20;;;;;;5056707;28;20029;-74
2023/02/08 05:54:20;;;;;;;53.97;35.22;;;-3274.10;88.20;;;;;;5057562;28;20048;-75
2023/02/08 05:56:46;;;;;;;53.20;34.70;;;-3274.20;88.30;;;;;;5056901;28;20029;-74
2023/02/08 05:59:12;;;;;;;58.50;37.15;;;-3274.20;88.30;;;;;;5056657;28;20766;-75
2023/02/08 06:01:37;;;;;;;57.83;37.08;;;-3274.20;88.30;;;;;;5055873;28;20109;-75
2023/02/08 06:04:03;;;;;;;62.60;39.47;;;-3274.20;88.30;;;;;;5056737;28;20690;-75
2023/02/08 06:06:28;;;;;;;62.42;38.55;;;-3274.20;88.30;;;;;;5055792;28;20044;-74
2023/02/08 06:08:54;;;;;;;57.88;37.85;;;-3274.20;88.30;;;;;;5054518;28;20364;-74
2023/02/08 06:11:20;;;;;;;59.35;38.35;;;-3274.20;88.20;;;;;;5058981;28;20036;-74
2023/02/08 06:13:47;;;;;;;56.25;37.05;;;-3274.20;88.20;;;;;;5060788;28;20032;-74
2023/02/08 06:16:13;;;;;;;62.75;38.17;;;-3274.20;88.20;;;;;;5060572;28;20048;-74
2023/02/08 06:18:39;;;;;;;63.13;37.55;;;-3274.20;88.20;;;;;;5061573;28;20032;-74
2023/02/08 06:21:05;;;;;;;60.63;39.47;;;-3274.20;88.20;;;;;;5058913;28;21487;-74
2023/02/08 06:23:30;;;;;;;58.28;39.00;;;-3274.20;88.10;;;;;;5042267;28;20029;-74
2023/02/08 06:25:56;;;;;;;61.22;39.17;;;-3274.10;88.00;;;;;;5058544;28;20564;-76
2023/02/08 06:28:22;;;;;;;57.85;38.90;;;-3274.10;88.00;;;;;;5036637;28;20085;-74
2023/02/08 06:30:49;;;;;;;67.80;40.55;;;-3274.00;87.90;;;;;;5055875;28;20035;-75
2023/02/08 06:33:15;;;;;;;69.93;41.40;;;-3274.10;88.10;;;;;;5054647;28;20036;-74
2023/02/08 06:35:49;;;;;;;63.17;41.92;;;-3274.10;88.00;;;;;;5055381;28;20050;-74
2023/02/08 06:38:15;;;;;;;63.10;40.88;;;-3274.10;88.00;;;;;;5053564;28;20033;-75
2023/02/08 06:40:41;;;;;;;66.05;40.85;;;-3274.10;88.10;;;;;;5056152;28;20031;-76
2023/02/08 06:43:07;;;;;;;64.65;40.50;;;-3274.10;88.10;;;;;;5053208;28;20129;-75
2023/02/08 06:45:33;;;;;;;62.55;40.13;;;-3274.10;88.10;;;;;;5053048;28;20508;-75
2023/02/08 06:47:58;;;;;;;64.43;41.35;;;-3274.10;88.10;;;;;;5054318;28;20020;-75
2023/02/08 06:50:24;;;;;;;64.82;42.15;;;-3274.10;88.00;;;;;;5036728;28;20382;-75
2023/02/08 06:52:50;;;;;;;65.43;43.50;;;-3274.10;88.00;;;;;;5038043;28;20364;-75
2023/02/08 06:55:15;;;;;;;66.97;42.58;;;-3274.20;88.00;;;;;;5035080;28;20029;-76
2023/02/08 06:57:41;;;;;;;64.47;40.92;;;-3274.20;88.00;;;;;;5050955;28;20464;-76
2023/02/08 07:00:08;;;;;;;65.45;42.42;;;-3274.10;88.00;;;;;;5036660;28;20023;-74
2023/02/08 07:02:33;;;;;;;70.20;43.67;;;-3274.20;88.10;;;;;;5053241;28;20044;-78
2023/02/08 07:04:59;;;;;;;64.63;41.38;;;-3274.10;88.10;;;;;;5052908;28;20029;-76
2023/02/08 07:07:26;;;;;;;63.28;40.97;;;-3274.10;88.10;;;;;;5036648;28;20024;-74
2023/02/08 07:09:51;;;;;;;69.10;42.50;;;-3274.10;88.10;;;;;;5053939;28;20444;-76
2023/02/08 07:12:17;;;;;;;61.45;39.90;;;-3274.10;88.20;;;;;;5057021;28;20025;-75
2023/02/08 07:14:43;;;;;;;58.90;40.08;;;-3274.10;88.20;;;;;;5058713;28;20039;-77
2023/02/08 07:17:10;;;;;;;63.22;40.47;;;-3274.10;88.20;;;;;;5060533;28;20025;-75
2023/02/08 07:19:36;;;;;;;62.88;39.92;;;-3274.10;88.20;;;;;;5060611;28;20388;-75
2023/02/08 07:22:07;;;;;;;64.65;40.17;;;-3274.10;88.20;;;;;;5060095;28;20037;-75
2023/02/08 07:24:37;;;;;;;66.28;41.13;;;-3274.10;88.20;;;;;;5060338;28;20032;-75
2023/02/08 07:27:05;;;;;;;66.20;38.97;;;-3274.20;88.20;;;;;;5057896;28;20264;-75
2023/02/08 07:29:31;;;;;;;62.47;38.97;;;-3274.20;88.20;;;;;;5062270;28;20060;-74
2023/02/08 07:32:00;;;;;;;69.13;42.22;;;-3274.20;88.20;;;;;;5055810;28;20120;-75
2023/02/08 07:34:29;;;;;;;66.70;43.38;;;-3274.30;88.10;;;;;;5056785;28;20523;-75
2023/02/08 07:36:55;;;;;;;70.90;45.13;;;-3274.30;87.90;;;;;;5060602;28;20040;-76
2023/02/08 07:39:21;;;;;;;61.92;42.38;;;-3274.30;87.80;;;;;;5051773;28;20471;-76
2023/02/08 07:41:47;;;;;;;68.05;40.85;;;-3274.30;87.80;;;;;;5052264;28;20021;-77
2023/02/08 07:44:13;;;;;;;60.28;37.63;;;-3274.30;87.70;;;;;;5058344;28;20179;-76
2023/02/08 07:46:39;;;;;;;58.15;39.05;;;-3274.40;87.80;;;;;;5053694;28;20135;-74
2023/02/08 07:49:05;;;;;;;63.00;38.22;;;-3274.40;87.80;;;;;;5059364;28;20025;-76
2023/02/08 07:51:31;;;;;;;57.90;39.33;;;-3274.50;87.80;;;;;;5057886;28;20055;-75
2023/02/08 07:53:57;;;;;;;59.92;38.28;;;-3274.50;87.80;;;;;;5035240;28;20380;-77
2023/02/08 07:56:22;;;;;;;61.30;37.42;;;-3274.50;87.80;;;;;;5038938;28;20153;-75
2023/02/08 07:58:48;;;;;;;61.88;38.42;;;-3274.60;87.70;;;;;;5061656;28;20494;-73
2023/02/08 08:01:14;;;;;;;56.03;36.58;;;-3274.60;87.70;;;;;;5058008;28;20459;-75
2023/02/08 08:03:40;;;;;;;54.25;36.67;;;-3274.60;87.70;;;;;;5059808;28;20028;-75
2023/02/08 08:06:06;;;;;;;64.63;38.05;;;-3274.70;87.70;;;;;;5041525;28;20035;-75
2023/02/08 08:08:32;;;;;;;67.75;42.65;;;-3274.70;87.50;;;;;;5042351;28;20086;-76
2023/02/08 08:10:59;;;;;;;58.33;39.95;;;-3274.80;87.50;;;;;;5054945;28;20037;-75
2023/02/08 08:13:25;;;;;;;63.60;39.88;;;-3274.80;87.30;;;;;;5034594;28;20021;-76
2023/02/08 08:15:50;;;;;;;58.20;40.55;;;-3274.90;87.40;;;;;;5058360;28;20029;-78
2023/02/08 08:18:16;;;;;;;63.35;40.97;;;-3274.90;87.40;;;;;;5059658;28;20024;-76
2023/02/08 08:20:42;;;;;;;63.33;38.92;;;-3275.00;87.50;;;;;;5058366;28;20065;-75
2023/02/08 08:23:08;;;;;;;61.97;40.28;;;-3275.10;87.60;;;;;;5063440;28;20100;-75
2023/02/08 08:25:35;;;;;;;59.35;39.63;;;-3275.10;87.60;;;;;;5039344;28;20276;-75
2023/02/08 08:28:01;;;;;;;63.58;41.00;;;-3275.10;87.60;;;;;;5061406;28;20052;-76
2023/02/08 08:30:27;;;;;;;61.00;41.58;;;-3275.20;87.70;;;;;;5059138;28;20538;-75
2023/02/08 08:32:53;;;;;;;58.25;41.13;;;-3275.30;87.80;;;;;;5064138;28;20039;-76
2023/02/08 08:35:19;;;;;;;64.90;42.03;;;-3275.40;87.80;;;;;;5046868;28;20028;-75
2023/02/08 08:37:45;;;;;;;67.43;44.05;;;-3275.40;87.90;;;;;;5063306;28;20635;-75
2023/02/08 08:40:11;;;;;;;62.92;41.97;;;-3275.50;88.20;;;;;;5060977;28;20096;-77
2023/02/08 08:42:38;;;;;;;63.05;39.95;;;-3275.60;88.20;;;;;;5042469;28;20040;-75
2023/02/08 08:45:06;;;;;;;63.00;39.35;;;-3275.80;88.30;;;;;;5063224;28;20027;-73
2023/02/08 08:47:32;;;;;;;54.85;35.60;;;-3275.90;88.20;;;;;;5043783;28;20381;-74
2023/02/08 08:49:57;;;;;;;53.10;36.20;;;-3276.00;88.30;;;;;;5061289;28;20021;-75
2023/02/08 08:52:23;;;;;;;57.22;38.03;;;-3276.10;88.30;;;;;;5061780;28;20099;-75
2023/02/08 08:54:50;;;;;;;58.92;37.50;;;-3276.20;88.40;;;;;;5063213;28;20025;-76
2023/02/08 08:57:16;;;;;;;58.20;38.63;;;-3276.40;88.50;;;;;;5063304;28;20067;-76
2023/02/08 08:59:42;;;;;;;58.42;37.75;;;-3276.60;88.60;;;;;;5065275;28;20073;-76
2023/02/08 09:02:11;;;;;;;56.72;37.45;;;0.00;88.70;;;;;;5058294;28;20374;-74
2023/02/08 09:04:39;;;;;;;52.05;37.28;;;0.20;88.50;;;;;;5062047;28;20025;-75
2023/02/08 09:07:06;;;;;;;59.17;39.40;;;0.40;88.10;;;;;;5062740;28;20033;-75
2023/02/08 09:09:32;;;;;;;54.28;37.83;;;0.60;88.00;;;;;;5064141;28;20024;-75
2023/02/08 09:11:58;;;;;;;58.55;38.10;;;0.90;87.70;;;;;;5063839;28;20040;-76
2023/02/08 09:14:24;;;;;;;55.58;36.30;;;1.10;86.80;;;;;;5059968;28;20036;-74
2023/02/08 09:16:50;;;;;;;55.53;37.53;;;1.30;86.20;;;;;;5062777;28;20056;-75
2023/02/08 09:19:16;;;;;;;56.80;37.55;;;1.50;86.30;;;;;;5062917;28;20383;-75
2023/02/08 09:21:42;;;;;;;59.05;36.97;;;1.80;86.20;;;;;;5055434;28;20529;-74
2023/02/08 09:24:08;;;;;;;55.15;35.30;;;2.00;85.40;;;;;;5065511;28;20021;-75
2023/02/08 09:26:34;;;;;;;51.28;35.63;;;2.10;83.80;;;;;;5062298;28;20045;-74
2023/02/08 09:29:00;;;;;;;53.35;35.42;;;2.40;83.60;;;;;;5043714;28;20516;-74
2023/02/08 09:31:30;;;;;;;59.17;36.10;;;2.60;83.30;;;;;;5042634;28;20036;-76
2023/02/08 09:33:58;;;;;;;49.95;33.40;;;2.70;81.80;;;;;;5046232;28;20029;-74
2023/02/08 09:36:27;;;;;;;46.17;30.50;;;2.90;81.10;;;;;;5043308;28;20021;-74
2023/02/08 09:38:59;;;;;;;42.65;29.67;;;3.00;79.40;;;;;;5044453;28;20028;-75
2023/02/08 09:41:52;;;;;;;43.58;29.35;;;3.10;79.10;;;;;;5038779;28;20021;-75
2023/02/08 09:44:32;;;;;;;40.30;27.90;;;3.20;79.10;;;;;;5044524;28;20364;-73
2023/02/08 09:47:09;;;;;;;40.08;28.02;;;3.50;78.20;;;;;;5040994;28;20480;-74
2023/02/08 09:50:05;;;;;;;39.15;28.02;;;3.60;78.30;;;;;;5045366;28;20291;-75
2023/02/08 09:52:49;;;;;;;40.83;28.42;;;3.80;76.80;;;;;;5039803;28;20045;-74
2023/02/08 09:55:33;;;;;;;35.33;25.92;;;3.80;75.10;;;;;;5043725;28;20025;-73
2023/02/08 09:58:02;;;;;;;35.47;26.10;;;3.90;74.50;;;;;;5042349;28;20060;-74
2023/02/08 10:00:39;;;;;;;34.95;26.23;;;4.10;74.50;;;;;;5038388;28;20597;-74
2023/02/08 10:03:41;;;;;;;27.73;21.77;;;4.30;74.10;;;;;;5042712;28;20104;-73
2023/02/08 10:06:11;;;;;;;32.97;20.90;;;4.40;72.20;;;;;;5018653;28;20504;-73
2023/02/08 10:08:38;;;;;;;29.52;20.67;;;4.50;70.50;;;;;;5044485;28;20024;-73
2023/02/08 10:11:25;;;;;;;28.30;20.25;;;4.70;70.50;;;;;;5037460;28;20032;-73
2023/02/08 10:14:28;;;;;;;29.65;20.05;;;4.70;68.60;;;;;;5039015;28;20587;-76
2023/02/08 10:17:27;;;;;;;28.05;20.25;;;4.70;68.70;;;;;;5039718;28;20025;-74
2023/02/08 10:19:59;;;;;;;26.73;18.63;;;5.00;69.20;;;;;;5056733;28;20021;-77
2023/02/08 10:22:58;;;;;;;24.10;18.17;;;5.10;67.10;;;;;;5038948;28;20032;-75
2023/02/08 10:25:58;;;;;;;26.00;17.35;;;5.10;67.00;;;;;;5040281;28;20024;-74
2023/02/08 10:28:53;;;;;;;20.58;15.65;;;5.20;64.90;;;;;;5033938;28;20357;-74
2023/02/08 10:31:37;;;;;;;23.27;16.58;;;5.30;64.80;;;;;;5055858;28;20033;-73
2023/02/08 10:34:25;;;;;;;23.30;16.55;;;5.40;64.10;;;;;;5062088;28;20048;-73
2023/02/08 10:36:52;;;;;;;20.65;14.80;;;5.40;63.80;;;;;;5057170;28;20055;-73
2023/02/08 10:39:26;;;;;;;20.83;15.25;;;5.60;64.70;;;;;;5062241;28;20021;-74
2023/02/08 10:41:53;;;;;;;19.58;14.48;;;5.70;64.00;;;;;;5063101;28;20372;-75
2023/02/08 10:44:48;;;;;;;23.95;15.60;;;5.80;62.20;;;;;;5062220;28;20356;-74
2023/02/08 10:47:22;;;;;;;21.13;15.02;;;5.90;61.90;;;;;;5021963;28;20129;-73
2023/02/08 10:50:23;;;;;;;22.20;16.08;;;6.00;61.30;;;;;;5054303;28;20020;-73
2023/02/08 10:52:49;;;;;;;20.80;14.80;;;6.10;59.90;;;;;;5041599;28;20480;-74
2023/02/08 10:55:18;;;;;;;19.88;15.30;;;6.10;58.70;;;;;;5060169;28;20025;-74
2023/02/08 10:57:47;;;;;;;19.58;14.68;;;6.20;59.80;;;;;;5061691;28;20032;-73
2023/02/08 11:00:21;;;;;;;22.52;15.88;;;6.20;58.90;;;;;;5055222;28;20154;-73
2023/02/08 11:02:49;;;;;;;20.80;15.70;;;6.40;60.00;;;;;;5059909;28;20060;-73
2023/02/08 11:05:33;;;;;;;21.48;15.45;;;6.50;60.20;;;;;;5064677;28;20062;-73
2023/02/08 11:08:18;;;;;;;20.35;14.27;;;6.60;59.80;;;;;;5060685;28;20021;-73
2023/02/08 11:10:59;;;;;;;19.02;13.55;;;6.80;58.50;;;;;;5063567;28;20514;-73
2023/02/08 11:13:40;;;;;;;21.05;15.90;;;6.90;58.20;;;;;;5059831;28;20024;-72
2023/02/08 11:16:09;;;;;;;21.77;15.65;;;6.70;57.90;;;;;;5056601;28;20102;-74
2023/02/08 11:18:38;;;;;;;21.63;16.17;;;6.60;57.40;;;;;;5057559;28;20028;-74
2023/02/08 11:21:09;;;;;;;20.88;15.40;;;6.40;57.50;;;;;;5053460;28;20048;-74
2023/02/08 11:23:42;;;;;;;20.75;15.90;;;6.60;58.50;;;;;;5058811;28;20470;-73
2023/02/08 11:26:22;;;;;;;20.20;14.93;;;6.80;57.50;;;;;;5060448;28;20527;-73
2023/02/08 11:29:22;;;;;;;25.70;15.52;;;6.90;57.00;;;;;;5056923;28;21273;-73
2023/02/08 11:31:54;;;;;;;19.98;14.68;;;7.00;56.50;;;;;;5029297;28;20123;-73
2023/02/08 11:34:37;;;;;;;20.58;15.10;;;6.80;54.40;;;;;;5058988;28;20428;-73
2023/02/08 11:37:25;;;;;;;20.13;16.05;;;6.60;55.30;;;;;;5058018;28;20070;-73
2023/02/08 11:39:54;;;;;;;22.13;14.65;;;6.80;56.10;;;;;;5062849;28;20024;-74
2023/02/08 11:42:39;;;;;;;20.33;14.35;;;7.00;54.20;;;;;;5059398;28;20548;-75
2023/02/08 11:45:06;;;;;;;22.38;16.02;;;6.90;53.30;;;;;;5062993;28;20135;-75
2023/02/08 11:47:34;;;;;;;19.67;15.32;;;7.10;54.20;;;;;;5062767;28;20139;-75
2023/02/08 11:50:02;;;;;;;20.63;14.77;;;6.90;53.50;;;;;;5061602;28;20465;-74
2023/02/08 11:52:39;;;;;;;19.75;14.45;;;6.90;53.50;;;;;;5055831;28;20072;-74
2023/02/08 11:55:17;;;;;;;19.65;14.40;;;7.10;53.80;;;;;;5056278;28;20087;-74
2023/02/08 11:58:10;;;;;;;19.45;14.65;;;7.20;53.30;;;;;;5063351;28;20029;-74
2023/02/08 12:00:38;;;;;;;22.50;15.15;;;7.20;53.60;;;;;;5063547;28;20127;-75
2023/02/08 12:03:17;;;;;;;24.05;14.27;;;7.20;53.70;;;;;;5065135;28;20035;-75
2023/02/08 12:06:11;;;;;;;20.77;15.38;;;7.30;54.40;;;;;;5065874;28;20028;-73
2023/02/08 12:08:46;;;;;;;20.02;15.05;;;7.30;53.20;;;;;;5063275;28;20024;-74
2023/02/08 12:11:30;;;;;;;21.42;14.85;;;7.40;53.20;;;;;;5064371;28;20491;-75
2023/02/08 12:14:25;;;;;;;19.90;14.68;;;7.40;51.80;;;;;;5062309;28;20075;-74
2023/02/08 12:17:23;;;;;;;22.52;15.85;;;7.60;52.10;;;;;;5063920;28;20040;-75
2023/02/08 12:20:17;;;;;;;22.92;16.23;;;7.70;52.00;;;;;;5064287;28;20021;-73
2023/02/08 12:22:53;;;;;;;25.27;17.52;;;7.80;52.70;;;;;;5063374;28;20131;-77
2023/02/08 12:25:42;;;;;;;20.15;14.40;;;7.80;51.20;;;;;;5044012;28;20040;-75
2023/02/08 12:28:36;;;;;;;21.17;14.52;;;7.80;49.60;;;;;;5061995;28;20056;-76